AFL1215 UWWW-USCC
Flight info
| Callsign | AFL1215 |
|---|---|
| Flight time | 1h 5m |
| Altitude | 37000 |
| Route | PIRIK P135 BUGOT L749 LUTAT |
| Aircraft | B738/M-V/N |
Departure
| Time | 2026-04-23 04:09 |
|---|---|
| Airport | Kurumoch International Airport (UWWW) |
Arrival
| Time | 2026-04-23 05:15 |
|---|---|
| Airport | Kurchatov Chelyabinsk International Airport (USCC) |
| Time | Latitude | Longitude | Altitude | Speed | Heading |
|---|---|---|---|---|---|
| 2026-04-23 03:58 | 53.50937 | 50.15690 | 491 ft | 0 kts | 152° |
| 2026-04-23 04:06 | 53.50934 | 50.15693 | 491 ft | 1 kts | 151° |
| 2026-04-23 04:06 | 53.50917 | 50.15727 | 491 ft | 5 kts | 107° |
| 2026-04-23 04:07 | 53.50934 | 50.15814 | 491 ft | 10 kts | 63° |
| 2026-04-23 04:07 | 53.50973 | 50.15947 | 491 ft | 15 kts | 64° |
| 2026-04-23 04:07 | 53.51028 | 50.16127 | 492 ft | 19 kts | 61° |
| 2026-04-23 04:07 | 53.51072 | 50.16365 | 492 ft | 23 kts | 98° |
| 2026-04-23 04:08 | 53.50994 | 50.16637 | 492 ft | 28 kts | 121° |
| 2026-04-23 04:08 | 53.50864 | 50.16642 | 492 ft | 24 kts | 245° |
| 2026-04-23 04:08 | 53.50794 | 50.16390 | 492 ft | 25 kts | 241° |
| 2026-04-23 04:08 | 53.50621 | 50.15848 | 492 ft | 93 kts | 240° |
| 2026-04-23 04:09 | 53.50172 | 50.14511 | 495 ft | 167 kts | 242° |
| 2026-04-23 04:09 | 53.49544 | 50.12744 | 909 ft | 172 kts | 238° |
| 2026-04-23 04:09 | 53.49062 | 50.10909 | 1590 ft | 177 kts | 269° |
| 2026-04-23 04:09 | 53.49437 | 50.09047 | 2349 ft | 176 kts | 310° |
| 2026-04-23 04:10 | 53.50417 | 50.07729 | 2814 ft | 190 kts | 328° |
| 2026-04-23 04:10 | 53.51694 | 50.06867 | 3271 ft | 207 kts | 346° |
| 2026-04-23 04:10 | 53.53166 | 50.06829 | 3703 ft | 227 kts | 10° |
| 2026-04-23 04:10 | 53.54625 | 50.07988 | 4251 ft | 241 kts | 37° |
| 2026-04-23 04:11 | 53.55707 | 50.10215 | 4851 ft | 255 kts | 66° |
| 2026-04-23 04:11 | 53.55973 | 50.13157 | 5385 ft | 269 kts | 99° |
| 2026-04-23 04:11 | 53.55202 | 50.16027 | 5999 ft | 276 kts | 132° |
| 2026-04-23 04:11 | 53.53781 | 50.18148 | 6768 ft | 277 kts | 141° |
| 2026-04-23 04:12 | 53.52577 | 50.20691 | 7504 ft | 285 kts | 114° |
| 2026-04-23 04:12 | 53.52288 | 50.23961 | 8241 ft | 291 kts | 82° |
| 2026-04-23 04:12 | 53.53040 | 50.27052 | 8943 ft | 295 kts | 50° |
| 2026-04-23 04:12 | 53.54580 | 50.29350 | 9680 ft | 297 kts | 33° |
| 2026-04-23 04:13 | 53.56298 | 50.31377 | 10135 ft | 311 kts | 36° |
| 2026-04-23 04:13 | 53.57939 | 50.33794 | 10539 ft | 326 kts | 45° |
| 2026-04-23 04:13 | 53.59457 | 50.36775 | 10915 ft | 342 kts | 52° |
| 2026-04-23 04:13 | 53.60870 | 50.40097 | 11263 ft | 359 kts | 56° |
| 2026-04-23 04:14 | 53.62277 | 50.43656 | 11666 ft | 372 kts | 57° |
| 2026-04-23 04:14 | 53.63711 | 50.47344 | 12255 ft | 380 kts | 57° |
| 2026-04-23 04:14 | 53.65169 | 50.51071 | 12913 ft | 386 kts | 56° |
| 2026-04-23 04:14 | 53.66656 | 50.54833 | 13594 ft | 390 kts | 56° |
| 2026-04-23 04:15 | 53.68169 | 50.58625 | 14260 ft | 394 kts | 56° |
| 2026-04-23 04:15 | 53.69697 | 50.62440 | 14959 ft | 397 kts | 56° |
| 2026-04-23 04:15 | 53.72832 | 50.70242 | 16263 ft | 405 kts | 56° |
| 2026-04-23 04:16 | 53.74395 | 50.74138 | 16919 ft | 408 kts | 56° |
| 2026-04-23 04:16 | 53.75981 | 50.78100 | 17516 ft | 412 kts | 56° |
| 2026-04-23 04:16 | 53.77602 | 50.82163 | 18126 ft | 416 kts | 56° |
| 2026-04-23 04:16 | 53.79207 | 50.86195 | 18699 ft | 420 kts | 56° |
| 2026-04-23 04:17 | 53.80845 | 50.90312 | 19299 ft | 424 kts | 56° |
| 2026-04-23 04:17 | 53.82479 | 50.94430 | 19946 ft | 425 kts | 56° |
| 2026-04-23 04:17 | 53.84113 | 50.98559 | 20535 ft | 428 kts | 56° |
| 2026-04-23 04:17 | 53.85784 | 51.02785 | 21139 ft | 431 kts | 56° |
| 2026-04-23 04:18 | 53.87426 | 51.06945 | 21725 ft | 433 kts | 56° |
| 2026-04-23 04:18 | 53.89100 | 51.11193 | 22263 ft | 436 kts | 56° |
| 2026-04-23 04:18 | 53.90798 | 51.15511 | 22817 ft | 439 kts | 56° |
| 2026-04-23 04:18 | 53.92469 | 51.19765 | 23324 ft | 442 kts | 56° |
| 2026-04-23 04:19 | 53.94195 | 51.24168 | 23859 ft | 445 kts | 56° |
| 2026-04-23 04:19 | 53.95893 | 51.28505 | 24331 ft | 449 kts | 56° |
| 2026-04-23 04:19 | 53.97636 | 51.32963 | 24801 ft | 452 kts | 56° |
| 2026-04-23 04:19 | 53.99394 | 51.37461 | 25251 ft | 455 kts | 56° |
| 2026-04-23 04:20 | 54.01176 | 51.41901 | 25699 ft | 458 kts | 53° |
| 2026-04-23 04:20 | 54.03086 | 51.46287 | 26156 ft | 460 kts | 51° |
| 2026-04-23 04:20 | 54.05038 | 51.50541 | 26602 ft | 462 kts | 51° |
| 2026-04-23 04:20 | 54.07039 | 51.54797 | 27007 ft | 465 kts | 50° |
| 2026-04-23 04:21 | 54.09099 | 51.59145 | 27364 ft | 468 kts | 50° |
| 2026-04-23 04:21 | 54.11124 | 51.63423 | 27706 ft | 471 kts | 50° |
| 2026-04-23 04:21 | 54.13176 | 51.67777 | 28030 ft | 474 kts | 51° |
| 2026-04-23 04:21 | 54.15266 | 51.72236 | 28326 ft | 477 kts | 51° |
| 2026-04-23 04:22 | 54.17314 | 51.76627 | 28682 ft | 478 kts | 51° |
| 2026-04-23 04:22 | 54.19358 | 51.81034 | 29159 ft | 475 kts | 51° |
| 2026-04-23 04:22 | 54.21398 | 51.85447 | 29481 ft | 476 kts | 51° |
| 2026-04-23 04:22 | 54.23459 | 51.89920 | 29854 ft | 476 kts | 51° |
| 2026-04-23 04:23 | 54.25506 | 51.94375 | 30184 ft | 476 kts | 51° |
| 2026-04-23 04:23 | 54.27548 | 51.98830 | 30495 ft | 477 kts | 51° |
| 2026-04-23 04:23 | 54.29559 | 52.03227 | 30840 ft | 476 kts | 51° |
| 2026-04-23 04:23 | 54.31607 | 52.07712 | 31042 ft | 478 kts | 52° |
| 2026-04-23 04:24 | 54.33639 | 52.12172 | 31243 ft | 480 kts | 51° |
| 2026-04-23 04:24 | 54.35707 | 52.16718 | 31502 ft | 479 kts | 52° |
| 2026-04-23 04:24 | 54.37736 | 52.21186 | 31731 ft | 480 kts | 52° |
| 2026-04-23 04:24 | 54.39769 | 52.25674 | 31941 ft | 481 kts | 52° |
| 2026-04-23 04:25 | 54.41824 | 52.30217 | 32183 ft | 482 kts | 52° |
| 2026-04-23 04:25 | 54.43857 | 52.34722 | 32418 ft | 482 kts | 52° |
| 2026-04-23 04:25 | 54.45915 | 52.39299 | 32656 ft | 483 kts | 52° |
| 2026-04-23 04:25 | 54.47940 | 52.43816 | 32884 ft | 483 kts | 52° |
| 2026-04-23 04:26 | 54.50003 | 52.48428 | 33118 ft | 484 kts | 52° |
| 2026-04-23 04:26 | 54.52039 | 52.52990 | 33348 ft | 484 kts | 52° |
| 2026-04-23 04:26 | 54.54060 | 52.57526 | 33594 ft | 484 kts | 52° |
| 2026-04-23 04:26 | 54.56097 | 52.62109 | 33871 ft | 483 kts | 52° |
| 2026-04-23 04:27 | 54.58131 | 52.66690 | 34136 ft | 483 kts | 53° |
| 2026-04-23 04:27 | 54.60164 | 52.71280 | 34389 ft | 483 kts | 53° |
| 2026-04-23 04:27 | 54.62107 | 52.75979 | 34533 ft | 484 kts | 57° |
| 2026-04-23 04:28 | 54.64963 | 52.86467 | 34557 ft | 483 kts | 73° |
| 2026-04-23 04:28 | 54.65901 | 52.92005 | 34553 ft | 482 kts | 76° |
| 2026-04-23 04:28 | 54.67443 | 53.03182 | 34549 ft | 481 kts | 78° |
| 2026-04-23 04:29 | 54.68875 | 53.14478 | 34548 ft | 482 kts | 79° |
| 2026-04-23 04:29 | 54.70315 | 53.25778 | 34549 ft | 482 kts | 78° |
| 2026-04-23 04:30 | 54.71777 | 53.37040 | 34552 ft | 482 kts | 78° |
| 2026-04-23 04:30 | 54.73264 | 53.48381 | 34558 ft | 482 kts | 78° |
| 2026-04-23 04:31 | 54.74746 | 53.59671 | 34559 ft | 482 kts | 78° |
| 2026-04-23 04:31 | 54.76215 | 53.70908 | 34554 ft | 481 kts | 79° |
| 2026-04-23 04:32 | 54.77683 | 53.82220 | 34556 ft | 482 kts | 79° |
| 2026-04-23 04:32 | 54.79133 | 53.93486 | 34554 ft | 482 kts | 79° |
| 2026-04-23 04:33 | 54.80582 | 54.04845 | 34548 ft | 482 kts | 79° |
| 2026-04-23 04:33 | 54.82010 | 54.16118 | 34547 ft | 483 kts | 79° |
| 2026-04-23 04:34 | 54.83443 | 54.27530 | 34545 ft | 483 kts | 79° |
| 2026-04-23 04:34 | 54.84851 | 54.38832 | 34547 ft | 483 kts | 79° |
| 2026-04-23 04:35 | 54.86259 | 54.50229 | 34561 ft | 483 kts | 79° |
| 2026-04-23 04:35 | 54.87649 | 54.61566 | 34570 ft | 483 kts | 79° |
| 2026-04-23 04:36 | 54.89036 | 54.72979 | 34573 ft | 483 kts | 80° |
| 2026-04-23 04:36 | 54.90408 | 54.84365 | 34580 ft | 484 kts | 80° |
| 2026-04-23 04:37 | 54.91772 | 54.95793 | 34580 ft | 484 kts | 80° |
| 2026-04-23 04:37 | 54.93129 | 55.07235 | 34572 ft | 483 kts | 80° |
| 2026-04-23 04:38 | 54.94469 | 55.18634 | 34570 ft | 483 kts | 80° |
| 2026-04-23 04:38 | 54.95795 | 55.30017 | 34575 ft | 483 kts | 80° |
| 2026-04-23 04:39 | 54.97114 | 55.41435 | 34586 ft | 483 kts | 80° |
| 2026-04-23 04:39 | 54.98425 | 55.52877 | 34588 ft | 483 kts | 80° |
| 2026-04-23 04:40 | 54.99732 | 55.64383 | 34593 ft | 484 kts | 80° |
| 2026-04-23 04:40 | 55.01017 | 55.75808 | 34591 ft | 483 kts | 81° |
| 2026-04-23 04:41 | 55.02300 | 55.87312 | 34593 ft | 483 kts | 81° |
| 2026-04-23 04:41 | 55.03564 | 55.98751 | 34595 ft | 483 kts | 81° |
| 2026-04-23 04:42 | 55.04817 | 56.10188 | 34595 ft | 483 kts | 81° |
| 2026-04-23 04:42 | 55.06059 | 56.21633 | 34596 ft | 483 kts | 81° |
| 2026-04-23 04:43 | 55.07295 | 56.33132 | 34601 ft | 484 kts | 81° |
| 2026-04-23 04:43 | 55.08519 | 56.44629 | 34608 ft | 484 kts | 81° |
| 2026-04-23 04:44 | 55.09736 | 56.56154 | 34612 ft | 484 kts | 81° |
| 2026-04-23 04:44 | 55.10942 | 56.67651 | 34617 ft | 483 kts | 82° |
| 2026-04-23 04:45 | 55.12139 | 56.79179 | 34619 ft | 483 kts | 82° |
| 2026-04-23 04:45 | 55.13327 | 56.90733 | 34622 ft | 485 kts | 82° |
| 2026-04-23 04:46 | 55.14497 | 57.02223 | 34627 ft | 485 kts | 82° |
| 2026-04-23 04:46 | 55.15666 | 57.13826 | 34623 ft | 485 kts | 82° |
| 2026-04-23 04:47 | 55.16821 | 57.25396 | 34626 ft | 485 kts | 82° |
| 2026-04-23 04:47 | 55.17971 | 57.37046 | 34619 ft | 485 kts | 82° |
| 2026-04-23 04:48 | 55.19098 | 57.48559 | 34623 ft | 485 kts | 82° |
| 2026-04-23 04:48 | 55.20221 | 57.60174 | 34628 ft | 485 kts | 82° |
| 2026-04-23 04:49 | 55.21340 | 57.71860 | 34636 ft | 486 kts | 83° |
| 2026-04-23 04:49 | 55.22437 | 57.83442 | 34638 ft | 487 kts | 83° |
| 2026-04-23 04:50 | 55.23538 | 57.95180 | 34644 ft | 487 kts | 83° |
| 2026-04-23 04:50 | 55.24621 | 58.06843 | 34647 ft | 487 kts | 83° |
| 2026-04-23 04:51 | 55.25691 | 58.18475 | 34645 ft | 487 kts | 83° |
| 2026-04-23 04:51 | 55.26762 | 58.30162 | 34643 ft | 486 kts | 83° |
| 2026-04-23 04:52 | 55.27830 | 58.41917 | 34647 ft | 487 kts | 83° |
| 2026-04-23 04:52 | 55.28883 | 58.53644 | 34647 ft | 486 kts | 83° |
| 2026-04-23 04:53 | 55.29917 | 58.65288 | 34643 ft | 487 kts | 84° |
| 2026-04-23 04:53 | 55.30944 | 58.77007 | 34640 ft | 487 kts | 84° |
| 2026-04-23 04:54 | 55.31958 | 58.88696 | 34647 ft | 487 kts | 84° |
| 2026-04-23 04:54 | 55.32964 | 59.00449 | 34657 ft | 488 kts | 84° |
| 2026-04-23 04:55 | 55.33955 | 59.12151 | 34655 ft | 487 kts | 84° |
| 2026-04-23 04:55 | 55.34940 | 59.23917 | 34649 ft | 487 kts | 84° |
| 2026-04-23 04:56 | 55.35905 | 59.35578 | 34277 ft | 482 kts | 84° |
| 2026-04-23 04:56 | 55.36380 | 59.41374 | 33775 ft | 481 kts | 84° |
| 2026-04-23 04:56 | 55.36852 | 59.47168 | 33201 ft | 485 kts | 84° |
| 2026-04-23 04:57 | 55.37321 | 59.52988 | 32634 ft | 490 kts | 84° |
| 2026-04-23 04:57 | 55.37794 | 59.58889 | 32196 ft | 489 kts | 84° |
| 2026-04-23 04:57 | 55.38267 | 59.64817 | 31575 ft | 492 kts | 84° |
| 2026-04-23 04:57 | 55.38739 | 59.70741 | 30622 ft | 491 kts | 85° |
| 2026-04-23 04:58 | 55.39203 | 59.76613 | 29363 ft | 493 kts | 85° |
| 2026-04-23 04:58 | 55.39586 | 59.82590 | 28011 ft | 491 kts | 88° |
| 2026-04-23 04:58 | 55.39815 | 59.88397 | 27399 ft | 475 kts | 90° |
| 2026-04-23 04:58 | 55.39973 | 59.94191 | 26711 ft | 472 kts | 91° |
| 2026-04-23 04:59 | 55.40095 | 59.99845 | 26044 ft | 470 kts | 91° |
| 2026-04-23 04:59 | 55.40210 | 60.05595 | 25342 ft | 467 kts | 91° |
| 2026-04-23 04:59 | 55.40324 | 60.11215 | 24666 ft | 465 kts | 91° |
| 2026-04-23 04:59 | 55.40443 | 60.16895 | 23951 ft | 462 kts | 91° |
| 2026-04-23 05:00 | 55.40538 | 60.22483 | 23259 ft | 459 kts | 91° |
| 2026-04-23 05:00 | 55.40591 | 60.28092 | 22568 ft | 455 kts | 92° |
| 2026-04-23 05:00 | 55.40619 | 60.33602 | 21879 ft | 452 kts | 92° |
| 2026-04-23 05:00 | 55.40640 | 60.39046 | 21208 ft | 448 kts | 92° |
| 2026-04-23 05:01 | 55.40660 | 60.44494 | 20531 ft | 445 kts | 92° |
| 2026-04-23 05:01 | 55.40680 | 60.49911 | 19839 ft | 442 kts | 92° |
| 2026-04-23 05:01 | 55.40701 | 60.55282 | 19166 ft | 439 kts | 92° |
| 2026-04-23 05:01 | 55.40723 | 60.60576 | 18488 ft | 436 kts | 92° |
| 2026-04-23 05:02 | 55.40747 | 60.65931 | 17808 ft | 432 kts | 93° |
| 2026-04-23 05:02 | 55.40769 | 60.71138 | 17134 ft | 429 kts | 92° |
| 2026-04-23 05:02 | 55.40790 | 60.76382 | 16467 ft | 426 kts | 92° |
| 2026-04-23 05:02 | 55.40810 | 60.81581 | 15779 ft | 423 kts | 92° |
| 2026-04-23 05:03 | 55.40845 | 60.86725 | 15105 ft | 419 kts | 92° |
| 2026-04-23 05:03 | 55.40903 | 60.91818 | 14426 ft | 416 kts | 91° |
| 2026-04-23 05:03 | 55.40971 | 60.96833 | 13756 ft | 413 kts | 91° |
| 2026-04-23 05:03 | 55.41040 | 61.01884 | 13100 ft | 409 kts | 91° |
| 2026-04-23 05:04 | 55.41105 | 61.06800 | 12445 ft | 406 kts | 91° |
| 2026-04-23 05:04 | 55.41163 | 61.11716 | 11796 ft | 403 kts | 91° |
| 2026-04-23 05:04 | 55.41218 | 61.16669 | 11126 ft | 400 kts | 91° |
| 2026-04-23 05:04 | 55.41267 | 61.21648 | 10532 ft | 394 kts | 91° |
| 2026-04-23 05:05 | 55.41312 | 61.26368 | 10269 ft | 381 kts | 91° |
| 2026-04-23 05:05 | 55.41353 | 61.30894 | 10138 ft | 365 kts | 91° |
| 2026-04-23 05:05 | 55.41391 | 61.35304 | 9991 ft | 351 kts | 91° |
| 2026-04-23 05:05 | 55.41427 | 61.39498 | 9760 ft | 341 kts | 91° |
| 2026-04-23 05:06 | 55.41459 | 61.43611 | 9332 ft | 339 kts | 91° |
| 2026-04-23 05:06 | 55.41489 | 61.47752 | 8895 ft | 336 kts | 91° |
| 2026-04-23 05:06 | 55.41518 | 61.51853 | 8482 ft | 333 kts | 91° |
| 2026-04-23 05:06 | 55.41546 | 61.55854 | 8070 ft | 330 kts | 92° |
| 2026-04-23 05:07 | 55.41405 | 61.59848 | 7734 ft | 320 kts | 102° |
| 2026-04-23 05:07 | 55.40836 | 61.63526 | 7615 ft | 304 kts | 114° |
| 2026-04-23 05:07 | 55.40051 | 61.66896 | 7406 ft | 293 kts | 118° |
| 2026-04-23 05:07 | 55.39201 | 61.70223 | 6499 ft | 301 kts | 118° |
| 2026-04-23 05:08 | 55.38343 | 61.73609 | 5550 ft | 307 kts | 117° |
| 2026-04-23 05:08 | 55.37528 | 61.76993 | 5190 ft | 292 kts | 116° |
| 2026-04-23 05:08 | 55.36773 | 61.80233 | 4970 ft | 275 kts | 117° |
| 2026-04-23 05:08 | 55.35903 | 61.83247 | 4578 ft | 270 kts | 129° |
| 2026-04-23 05:09 | 55.34575 | 61.85401 | 4338 ft | 253 kts | 158° |
| 2026-04-23 05:09 | 55.32935 | 61.86065 | 4150 ft | 238 kts | 184° |
| 2026-04-23 05:09 | 55.31332 | 61.85600 | 3970 ft | 226 kts | 198° |
| 2026-04-23 05:09 | 55.29863 | 61.84698 | 3712 ft | 220 kts | 202° |
| 2026-04-23 05:10 | 55.28464 | 61.83676 | 3476 ft | 213 kts | 208° |
| 2026-04-23 05:10 | 55.27306 | 61.82119 | 3255 ft | 206 kts | 231° |
| 2026-04-23 05:10 | 55.26776 | 61.79819 | 3084 ft | 202 kts | 259° |
| 2026-04-23 05:10 | 55.26834 | 61.77421 | 2972 ft | 188 kts | 275° |
| 2026-04-23 05:11 | 55.27098 | 61.75309 | 2760 ft | 171 kts | 278° |
| 2026-04-23 05:11 | 55.27364 | 61.73367 | 2589 ft | 157 kts | 277° |
| 2026-04-23 05:11 | 55.27617 | 61.71512 | 2495 ft | 155 kts | 277° |
| 2026-04-23 05:11 | 55.27875 | 61.69686 | 2343 ft | 151 kts | 278° |
| 2026-04-23 05:12 | 55.28124 | 61.67925 | 2216 ft | 147 kts | 277° |
| 2026-04-23 05:12 | 55.28367 | 61.66173 | 2216 ft | 148 kts | 277° |
| 2026-04-23 05:12 | 55.28614 | 61.64415 | 2145 ft | 149 kts | 277° |
| 2026-04-23 05:12 | 55.28864 | 61.62634 | 1903 ft | 147 kts | 277° |
| 2026-04-23 05:13 | 55.29106 | 61.60910 | 1713 ft | 147 kts | 277° |
| 2026-04-23 05:13 | 55.29348 | 61.59166 | 1505 ft | 147 kts | 278° |
| 2026-04-23 05:13 | 55.29600 | 61.57408 | 1273 ft | 146 kts | 279° |
| 2026-04-23 05:14 | 55.30052 | 61.54124 | 896 ft | 130 kts | 278° |
| 2026-04-23 05:14 | 55.30268 | 61.52571 | 771 ft | 133 kts | 279° |
| 2026-04-23 05:14 | 55.30464 | 61.51090 | 747 ft | 113 kts | 280° |
| 2026-04-23 05:14 | 55.30600 | 61.50099 | 756 ft | 57 kts | 283° |
| 2026-04-23 05:15 | 55.30700 | 61.49403 | 761 ft | 57 kts | 284° |
| 2026-04-23 05:15 | 55.30772 | 61.48878 | 761 ft | 37 kts | 277° |
| 2026-04-23 05:15 | 55.30826 | 61.48488 | 756 ft | 24 kts | 285° |
| 2026-04-23 05:15 | 55.30843 | 61.48225 | 754 ft | 16 kts | 232° |